sensor_id;sensor_type;location;lat;lon;timestamp;temperature;humidity
22923;DHT22;11627;51.322;22.816;2022-08-21T00:00:19;20.70;99.90
22923;DHT22;11627;51.322;22.816;2022-08-21T00:02:56;20.50;99.90
22923;DHT22;11627;51.322;22.816;2022-08-21T00:05:27;20.50;99.90
22923;DHT22;11627;51.322;22.816;2022-08-21T00:07:55;20.50;1.00
22923;DHT22;11627;51.322;22.816;2022-08-21T00:10:22;20.50;1.00
22923;DHT22;11627;51.322;22.816;2022-08-21T00:12:48;20.50;1.00
22923;DHT22;11627;51.322;22.816;2022-08-21T00:15:18;20.70;99.90
22923;DHT22;11627;51.322;22.816;2022-08-21T00:20:15;20.40;1.00
22923;DHT22;11627;51.322;22.816;2022-08-21T00:22:42;20.30;1.00
22923;DHT22;11627;51.322;22.816;2022-08-21T00:25:09;20.60;1.00
22923;DHT22;11627;51.322;22.816;2022-08-21T00:27:35;20.30;1.00
22923;DHT22;11627;51.322;22.816;2022-08-21T00:30:03;20.30;1.00
22923;DHT22;11627;51.322;22.816;2022-08-21T00:32:31;20.20;1.00
22923;DHT22;11627;51.322;22.816;2022-08-21T00:34:58;20.20;1.00
22923;DHT22;11627;51.322;22.816;2022-08-21T00:37:24;20.40;1.00
22923;DHT22;11627;51.322;22.816;2022-08-21T00:39:50;20.30;1.00
22923;DHT22;11627;51.322;22.816;2022-08-21T00:42:16;20.80;1.00
22923;DHT22;11627;51.322;22.816;2022-08-21T00:44:44;20.20;1.00
22923;DHT22;11627;51.322;22.816;2022-08-21T00:47:12;20.20;1.00
22923;DHT22;11627;51.322;22.816;2022-08-21T00:49:38;20.30;1.00
22923;DHT22;11627;51.322;22.816;2022-08-21T00:52:09;20.20;1.00
22923;DHT22;11627;51.322;22.816;2022-08-21T00:54:36;20.30;1.00
22923;DHT22;11627;51.322;22.816;2022-08-21T00:57:13;20.20;1.00
22923;DHT22;11627;51.322;22.816;2022-08-21T00:59:44;20.30;1.00
22923;DHT22;11627;51.322;22.816;2022-08-21T01:02:12;20.20;1.00
22923;DHT22;11627;51.322;22.816;2022-08-21T01:04:38;20.80;1.00
22923;DHT22;11627;51.322;22.816;2022-08-21T01:07:04;20.30;1.00
22923;DHT22;11627;51.322;22.816;2022-08-21T01:09:30;20.20;1.00
22923;DHT22;11627;51.322;22.816;2022-08-21T01:11:55;20.20;1.00
22923;DHT22;11627;51.322;22.816;2022-08-21T01:16:51;20.10;1.00
22923;DHT22;11627;51.322;22.816;2022-08-21T01:19:20;20.10;1.00
22923;DHT22;11627;51.322;22.816;2022-08-21T01:21:46;20.10;1.00
22923;DHT22;11627;51.322;22.816;2022-08-21T01:24:13;20.10;1.00
22923;DHT22;11627;51.322;22.816;2022-08-21T01:26:40;20.00;1.00
22923;DHT22;11627;51.322;22.816;2022-08-21T01:29:27;20.10;1.00
22923;DHT22;11627;51.322;22.816;2022-08-21T01:32:17;20.00;1.00
22923;DHT22;11627;51.322;22.816;2022-08-21T01:34:46;20.10;1.00
22923;DHT22;11627;51.322;22.816;2022-08-21T01:37:15;19.90;1.00
22923;DHT22;11627;51.322;22.816;2022-08-21T01:39:43;20.00;1.00
22923;DHT22;11627;51.322;22.816;2022-08-21T01:42:09;19.80;1.00
22923;DHT22;11627;51.322;22.816;2022-08-21T01:44:35;19.80;1.00
22923;DHT22;11627;51.322;22.816;2022-08-21T01:47:03;19.80;1.00
22923;DHT22;11627;51.322;22.816;2022-08-21T01:49:30;20.20;1.00
22923;DHT22;11627;51.322;22.816;2022-08-21T01:51:57;19.80;1.00
22923;DHT22;11627;51.322;22.816;2022-08-21T01:54:22;19.90;1.00
22923;DHT22;11627;51.322;22.816;2022-08-21T01:56:51;19.90;1.00
22923;DHT22;11627;51.322;22.816;2022-08-21T01:59:17;19.90;1.00
22923;DHT22;11627;51.322;22.816;2022-08-21T02:01:43;19.90;1.00
22923;DHT22;11627;51.322;22.816;2022-08-21T02:04:11;19.90;1.00
22923;DHT22;11627;51.322;22.816;2022-08-21T02:06:37;19.90;1.00
22923;DHT22;11627;51.322;22.816;2022-08-21T02:09:04;19.90;1.00
22923;DHT22;11627;51.322;22.816;2022-08-21T02:11:31;19.80;1.00
22923;DHT22;11627;51.322;22.816;2022-08-21T02:13:57;19.70;1.00
22923;DHT22;11627;51.322;22.816;2022-08-21T02:16:23;19.80;1.00
22923;DHT22;11627;51.322;22.816;2022-08-21T02:18:49;19.80;1.00
22923;DHT22;11627;51.322;22.816;2022-08-21T02:21:15;20.60;1.00
22923;DHT22;11627;51.322;22.816;2022-08-21T02:23:40;19.70;1.00
22923;DHT22;11627;51.322;22.816;2022-08-21T02:26:07;19.70;1.00
22923;DHT22;11627;51.322;22.816;2022-08-21T02:28:34;19.70;1.00
22923;DHT22;11627;51.322;22.816;2022-08-21T02:31:02;19.70;1.00
22923;DHT22;11627;51.322;22.816;2022-08-21T02:33:29;19.70;1.00
22923;DHT22;11627;51.322;22.816;2022-08-21T02:35:56;19.70;1.00
22923;DHT22;11627;51.322;22.816;2022-08-21T02:38:25;19.80;1.00
22923;DHT22;11627;51.322;22.816;2022-08-21T02:40:53;19.70;1.00
22923;DHT22;11627;51.322;22.816;2022-08-21T02:43:22;19.80;1.00
22923;DHT22;11627;51.322;22.816;2022-08-21T02:45:51;19.90;1.00
22923;DHT22;11627;51.322;22.816;2022-08-21T02:48:20;19.80;1.00
22923;DHT22;11627;51.322;22.816;2022-08-21T02:51:00;19.80;1.00
22923;DHT22;11627;51.322;22.816;2022-08-21T02:53:46;19.70;1.00
22923;DHT22;11627;51.322;22.816;2022-08-21T02:56:15;19.70;1.00
22923;DHT22;11627;51.322;22.816;2022-08-21T02:58:46;19.60;1.00
22923;DHT22;11627;51.322;22.816;2022-08-21T03:01:15;19.50;1.00
22923;DHT22;11627;51.322;22.816;2022-08-21T03:03:43;19.50;1.00
22923;DHT22;11627;51.322;22.816;2022-08-21T03:06:13;19.60;1.00
22923;DHT22;11627;51.322;22.816;2022-08-21T03:11:07;19.60;1.00
22923;DHT22;11627;51.322;22.816;2022-08-21T03:13:33;19.60;1.00
22923;DHT22;11627;51.322;22.816;2022-08-21T03:15:59;19.50;1.00
22923;DHT22;11627;51.322;22.816;2022-08-21T03:18:24;19.50;1.00
22923;DHT22;11627;51.322;22.816;2022-08-21T03:20:50;19.30;1.00
22923;DHT22;11627;51.322;22.816;2022-08-21T03:23:17;19.30;1.00
22923;DHT22;11627;51.322;22.816;2022-08-21T03:25:43;19.40;1.00
22923;DHT22;11627;51.322;22.816;2022-08-21T03:28:13;19.30;1.00
22923;DHT22;11627;51.322;22.816;2022-08-21T03:30:45;19.40;1.00
22923;DHT22;11627;51.322;22.816;2022-08-21T03:33:13;19.50;1.00
22923;DHT22;11627;51.322;22.816;2022-08-21T03:35:39;20.50;1.00
22923;DHT22;11627;51.322;22.816;2022-08-21T03:38:07;19.60;1.00
22923;DHT22;11627;51.322;22.816;2022-08-21T03:40:33;19.50;1.00
22923;DHT22;11627;51.322;22.816;2022-08-21T03:42:58;19.50;1.00
22923;DHT22;11627;51.322;22.816;2022-08-21T03:45:24;19.60;1.00
22923;DHT22;11627;51.322;22.816;2022-08-21T03:47:58;20.10;1.00
22923;DHT22;11627;51.322;22.816;2022-08-21T03:50:32;19.60;1.00
22923;DHT22;11627;51.322;22.816;2022-08-21T03:53:00;19.60;1.00
22923;DHT22;11627;51.322;22.816;2022-08-21T03:55:27;19.60;1.00
22923;DHT22;11627;51.322;22.816;2022-08-21T03:57:53;19.60;1.00
22923;DHT22;11627;51.322;22.816;2022-08-21T04:00:19;19.60;1.00
22923;DHT22;11627;51.322;22.816;2022-08-21T04:02:46;19.70;1.00
22923;DHT22;11627;51.322;22.816;2022-08-21T04:05:14;19.70;1.00
22923;DHT22;11627;51.322;22.816;2022-08-21T04:08:02;19.60;1.00
22923;DHT22;11627;51.322;22.816;2022-08-21T04:10:31;19.60;1.00
22923;DHT22;11627;51.322;22.816;2022-08-21T04:12:58;19.70;1.00
22923;DHT22;11627;51.322;22.816;2022-08-21T04:15:25;20.40;1.00
22923;DHT22;11627;51.322;22.816;2022-08-21T04:17:51;19.80;1.00
22923;DHT22;11627;51.322;22.816;2022-08-21T04:20:18;19.80;1.00
22923;DHT22;11627;51.322;22.816;2022-08-21T04:22:45;19.80;1.00
22923;DHT22;11627;51.322;22.816;2022-08-21T04:25:12;19.90;1.00
22923;DHT22;11627;51.322;22.816;2022-08-21T04:27:39;20.00;1.00
22923;DHT22;11627;51.322;22.816;2022-08-21T04:30:06;20.00;1.00
22923;DHT22;11627;51.322;22.816;2022-08-21T04:32:35;20.00;1.00
22923;DHT22;11627;51.322;22.816;2022-08-21T04:35:08;20.00;1.00
22923;DHT22;11627;51.322;22.816;2022-08-21T04:37:35;20.00;1.00
22923;DHT22;11627;51.322;22.816;2022-08-21T04:40:02;20.00;1.00
22923;DHT22;11627;51.322;22.816;2022-08-21T04:42:28;20.00;1.00
22923;DHT22;11627;51.322;22.816;2022-08-21T04:44:55;20.10;1.00
22923;DHT22;11627;51.322;22.816;2022-08-21T04:47:22;20.10;1.00
22923;DHT22;11627;51.322;22.816;2022-08-21T04:49:48;20.10;1.00
22923;DHT22;11627;51.322;22.816;2022-08-21T04:52:18;20.10;1.00
22923;DHT22;11627;51.322;22.816;2022-08-21T04:54:45;20.10;1.00
22923;DHT22;11627;51.322;22.816;2022-08-21T04:57:15;20.10;1.00
22923;DHT22;11627;51.322;22.816;2022-08-21T04:59:46;20.20;1.00
22923;DHT22;11627;51.322;22.816;2022-08-21T05:02:14;20.10;1.00
22923;DHT22;11627;51.322;22.816;2022-08-21T05:04:52;20.10;1.00
22923;DHT22;11627;51.322;22.816;2022-08-21T05:07:22;20.10;1.00
22923;DHT22;11627;51.322;22.816;2022-08-21T05:09:50;20.10;1.00
22923;DHT22;11627;51.322;22.816;2022-08-21T05:12:16;20.20;1.00
22923;DHT22;11627;51.322;22.816;2022-08-21T05:14:42;20.10;1.00
22923;DHT22;11627;51.322;22.816;2022-08-21T05:17:08;20.20;1.00
22923;DHT22;11627;51.322;22.816;2022-08-21T05:19:35;20.20;1.00
22923;DHT22;11627;51.322;22.816;2022-08-21T05:22:01;20.20;1.00
22923;DHT22;11627;51.322;22.816;2022-08-21T05:24:27;20.30;1.00
22923;DHT22;11627;51.322;22.816;2022-08-21T05:26:53;20.30;1.00
22923;DHT22;11627;51.322;22.816;2022-08-21T05:29:19;20.40;1.00
22923;DHT22;11627;51.322;22.816;2022-08-21T05:31:46;20.50;1.00
22923;DHT22;11627;51.322;22.816;2022-08-21T05:34:14;20.50;1.00
22923;DHT22;11627;51.322;22.816;2022-08-21T05:36:43;20.60;1.00
22923;DHT22;11627;51.322;22.816;2022-08-21T05:39:09;20.70;1.00
22923;DHT22;11627;51.322;22.816;2022-08-21T05:41:34;20.70;1.00
22923;DHT22;11627;51.322;22.816;2022-08-21T05:44:00;20.80;1.00
22923;DHT22;11627;51.322;22.816;2022-08-21T05:46:26;20.90;1.00
22923;DHT22;11627;51.322;22.816;2022-08-21T05:48:51;20.90;1.00
22923;DHT22;11627;51.322;22.816;2022-08-21T05:51:17;21.00;1.00
22923;DHT22;11627;51.322;22.816;2022-08-21T05:53:43;21.00;1.00
22923;DHT22;11627;51.322;22.816;2022-08-21T05:56:11;21.00;1.00
22923;DHT22;11627;51.322;22.816;2022-08-21T05:58:37;21.10;1.00
22923;DHT22;11627;51.322;22.816;2022-08-21T06:01:04;21.30;1.00
22923;DHT22;11627;51.322;22.816;2022-08-21T06:03:37;21.30;1.00
22923;DHT22;11627;51.322;22.816;2022-08-21T06:06:05;21.30;1.00
22923;DHT22;11627;51.322;22.816;2022-08-21T06:08:31;21.40;1.00
22923;DHT22;11627;51.322;22.816;2022-08-21T06:10:59;21.40;1.00
22923;DHT22;11627;51.322;22.816;2022-08-21T06:13:26;21.40;1.00
22923;DHT22;11627;51.322;22.816;2022-08-21T06:16:11;21.40;1.00
22923;DHT22;11627;51.322;22.816;2022-08-21T06:18:38;21.40;1.00
22923;DHT22;11627;51.322;22.816;2022-08-21T06:21:04;21.40;1.00
22923;DHT22;11627;51.322;22.816;2022-08-21T06:23:31;21.40;1.00
22923;DHT22;11627;51.322;22.816;2022-08-21T06:25:57;21.40;1.00
22923;DHT22;11627;51.322;22.816;2022-08-21T06:28:23;21.50;1.00
22923;DHT22;11627;51.322;22.816;2022-08-21T06:30:49;21.60;1.00
22923;DHT22;11627;51.322;22.816;2022-08-21T06:33:15;21.50;1.00
22923;DHT22;11627;51.322;22.816;2022-08-21T06:35:40;21.60;1.00
22923;DHT22;11627;51.322;22.816;2022-08-21T06:38:06;21.50;1.00
22923;DHT22;11627;51.322;22.816;2022-08-21T06:40:32;21.50;1.00
22923;DHT22;11627;51.322;22.816;2022-08-21T06:43:04;21.50;1.00
22923;DHT22;11627;51.322;22.816;2022-08-21T06:45:36;21.60;1.00
22923;DHT22;11627;51.322;22.816;2022-08-21T06:48:02;21.60;1.00
22923;DHT22;11627;51.322;22.816;2022-08-21T06:50:30;21.80;1.00
22923;DHT22;11627;51.322;22.816;2022-08-21T06:53:09;21.90;1.00
22923;DHT22;11627;51.322;22.816;2022-08-21T06:55:36;21.90;1.00
22923;DHT22;11627;51.322;22.816;2022-08-21T06:58:04;21.90;1.00
22923;DHT22;11627;51.322;22.816;2022-08-21T07:00:30;22.00;1.00
22923;DHT22;11627;51.322;22.816;2022-08-21T07:02:57;22.00;1.00
22923;DHT22;11627;51.322;22.816;2022-08-21T07:05:26;21.80;1.00
22923;DHT22;11627;51.322;22.816;2022-08-21T07:07:52;22.10;1.00
22923;DHT22;11627;51.322;22.816;2022-08-21T07:10:18;22.10;1.00
22923;DHT22;11627;51.322;22.816;2022-08-21T07:12:44;22.10;1.00
22923;DHT22;11627;51.322;22.816;2022-08-21T07:15:11;22.10;1.00
22923;DHT22;11627;51.322;22.816;2022-08-21T07:17:36;22.10;1.00
22923;DHT22;11627;51.322;22.816;2022-08-21T07:20:04;22.30;1.00
22923;DHT22;11627;51.322;22.816;2022-08-21T07:22:31;22.30;1.00
22923;DHT22;11627;51.322;22.816;2022-08-21T07:24:57;22.40;1.00
22923;DHT22;11627;51.322;22.816;2022-08-21T07:27:22;23.20;1.00
22923;DHT22;11627;51.322;22.816;2022-08-21T07:29:48;22.50;1.00
22923;DHT22;11627;51.322;22.816;2022-08-21T07:32:14;22.50;1.00
22923;DHT22;11627;51.322;22.816;2022-08-21T07:34:40;22.50;1.00
22923;DHT22;11627;51.322;22.816;2022-08-21T07:37:07;22.60;1.00
22923;DHT22;11627;51.322;22.816;2022-08-21T07:39:32;22.50;1.00
22923;DHT22;11627;51.322;22.816;2022-08-21T07:41:58;22.80;1.00
22923;DHT22;11627;51.322;22.816;2022-08-21T07:44:25;22.70;1.00
22923;DHT22;11627;51.322;22.816;2022-08-21T07:46:51;23.00;1.00
22923;DHT22;11627;51.322;22.816;2022-08-21T07:49:16;23.10;1.00
22923;DHT22;11627;51.322;22.816;2022-08-21T07:51:42;23.10;1.00
22923;DHT22;11627;51.322;22.816;2022-08-21T07:54:07;23.10;1.00
22923;DHT22;11627;51.322;22.816;2022-08-21T07:56:34;23.20;1.00
22923;DHT22;11627;51.322;22.816;2022-08-21T07:59:00;23.20;99.90
22923;DHT22;11627;51.322;22.816;2022-08-21T08:01:28;23.60;99.90
22923;DHT22;11627;51.322;22.816;2022-08-21T08:03:54;23.10;99.90
22923;DHT22;11627;51.322;22.816;2022-08-21T08:06:21;23.10;99.90
22923;DHT22;11627;51.322;22.816;2022-08-21T08:08:48;23.00;99.90
22923;DHT22;11627;51.322;22.816;2022-08-21T08:11:14;23.00;99.90
22923;DHT22;11627;51.322;22.816;2022-08-21T08:13:48;23.10;1.00
22923;DHT22;11627;51.322;22.816;2022-08-21T08:16:16;23.10;99.90
22923;DHT22;11627;51.322;22.816;2022-08-21T08:18:42;23.20;99.90
22923;DHT22;11627;51.322;22.816;2022-08-21T08:21:10;23.30;99.90
22923;DHT22;11627;51.322;22.816;2022-08-21T08:23:37;23.50;99.90
22923;DHT22;11627;51.322;22.816;2022-08-21T08:26:04;23.60;99.90
22923;DHT22;11627;51.322;22.816;2022-08-21T08:28:31;23.60;99.90
22923;DHT22;11627;51.322;22.816;2022-08-21T08:30:59;23.60;99.90
22923;DHT22;11627;51.322;22.816;2022-08-21T08:33:25;23.50;99.90
22923;DHT22;11627;51.322;22.816;2022-08-21T08:35:51;23.60;99.90
22923;DHT22;11627;51.322;22.816;2022-08-21T08:38:19;23.60;99.90
22923;DHT22;11627;51.322;22.816;2022-08-21T08:43:57;23.70;99.90
22923;DHT22;11627;51.322;22.816;2022-08-21T08:46:32;23.70;99.90
22923;DHT22;11627;51.322;22.816;2022-08-21T08:49:27;23.70;99.90
22923;DHT22;11627;51.322;22.816;2022-08-21T08:54:47;23.80;99.90
22923;DHT22;11627;51.322;22.816;2022-08-21T08:57:20;25.50;99.90
22923;DHT22;11627;51.322;22.816;2022-08-21T08:59:52;24.10;99.90
22923;DHT22;11627;51.322;22.816;2022-08-21T09:02:22;24.20;99.90
22923;DHT22;11627;51.322;22.816;2022-08-21T09:04:53;25.40;99.90
22923;DHT22;11627;51.322;22.816;2022-08-21T09:10:29;24.20;99.90
22923;DHT22;11627;51.322;22.816;2022-08-21T09:13:24;24.30;99.90
22923;DHT22;11627;51.322;22.816;2022-08-21T09:16:02;24.20;99.90
22923;DHT22;11627;51.322;22.816;2022-08-21T09:27:11;24.40;99.90
22923;DHT22;11627;51.322;22.816;2022-08-21T09:29:47;25.50;99.90
22923;DHT22;11627;51.322;22.816;2022-08-21T09:32:28;24.30;99.90
22923;DHT22;11627;51.322;22.816;2022-08-21T09:37:56;24.50;99.90
22923;DHT22;11627;51.322;22.816;2022-08-21T09:40:45;24.50;99.90
22923;DHT22;11627;51.322;22.816;2022-08-21T09:45:39;24.60;99.90
22923;DHT22;11627;51.322;22.816;2022-08-21T09:50:49;24.40;99.90
22923;DHT22;11627;51.322;22.816;2022-08-21T09:53:27;24.70;99.90
22923;DHT22;11627;51.322;22.816;2022-08-21T09:56:00;24.60;99.90
22923;DHT22;11627;51.322;22.816;2022-08-21T09:58:49;24.80;99.90
22923;DHT22;11627;51.322;22.816;2022-08-21T10:01:22;24.60;98.50
22923;DHT22;11627;51.322;22.816;2022-08-21T10:04:02;24.60;99.90
22923;DHT22;11627;51.322;22.816;2022-08-21T10:06:29;24.70;99.90
22923;DHT22;11627;51.322;22.816;2022-08-21T10:09:09;24.80;99.90
22923;DHT22;11627;51.322;22.816;2022-08-21T10:11:36;24.90;99.90
22923;DHT22;11627;51.322;22.816;2022-08-21T10:17:04;24.90;87.10
22923;DHT22;11627;51.322;22.816;2022-08-21T10:19:57;24.90;37.90
22923;DHT22;11627;51.322;22.816;2022-08-21T10:25:43;24.80;37.30
22923;DHT22;11627;51.322;22.816;2022-08-21T10:28:33;25.00;56.40
22923;DHT22;11627;51.322;22.816;2022-08-21T10:31:34;25.00;27.70
22923;DHT22;11627;51.322;22.816;2022-08-21T10:45:56;25.40;1.00
22923;DHT22;11627;51.322;22.816;2022-08-21T10:57:01;25.70;99.90
22923;DHT22;11627;51.322;22.816;2022-08-21T10:59:42;25.60;99.90
22923;DHT22;11627;51.322;22.816;2022-08-21T11:02:30;25.60;99.90
22923;DHT22;11627;51.322;22.816;2022-08-21T11:05:20;25.60;99.90
22923;DHT22;11627;51.322;22.816;2022-08-21T11:08:05;25.70;99.90
22923;DHT22;11627;51.322;22.816;2022-08-21T11:10:41;25.70;65.10
22923;DHT22;11627;51.322;22.816;2022-08-21T11:19:09;25.90;29.00
22923;DHT22;11627;51.322;22.816;2022-08-21T11:21:45;25.90;1.00
22923;DHT22;11627;51.322;22.816;2022-08-21T11:29:37;25.90;99.90
22923;DHT22;11627;51.322;22.816;2022-08-21T11:32:12;25.80;99.90
22923;DHT22;11627;51.322;22.816;2022-08-21T11:35:19;25.90;99.90
22923;DHT22;11627;51.322;22.816;2022-08-21T11:51:37;25.80;99.90
22923;DHT22;11627;51.322;22.816;2022-08-21T11:57:25;25.70;99.90
22923;DHT22;11627;51.322;22.816;2022-08-21T12:02:46;25.90;99.90
22923;DHT22;11627;51.322;22.816;2022-08-21T12:05:42;26.70;99.90
22923;DHT22;11627;51.322;22.816;2022-08-21T12:08:14;25.90;99.90
22923;DHT22;11627;51.322;22.816;2022-08-21T12:11:07;25.90;99.90
22923;DHT22;11627;51.322;22.816;2022-08-21T12:16:40;26.20;99.90
22923;DHT22;11627;51.322;22.816;2022-08-21T12:19:09;26.30;76.80
22923;DHT22;11627;51.322;22.816;2022-08-21T12:21:54;26.50;90.70
22923;DHT22;11627;51.322;22.816;2022-08-21T12:24:48;26.60;99.90
22923;DHT22;11627;51.322;22.816;2022-08-21T12:27:27;26.70;1.00
22923;DHT22;11627;51.322;22.816;2022-08-21T12:30:32;26.80;1.00
22923;DHT22;11627;51.322;22.816;2022-08-21T12:33:17;26.80;99.90
22923;DHT22;11627;51.322;22.816;2022-08-21T12:36:12;26.80;99.90
22923;DHT22;11627;51.322;22.816;2022-08-21T12:38:54;26.70;99.90
22923;DHT22;11627;51.322;22.816;2022-08-21T12:41:27;26.80;99.90
22923;DHT22;11627;51.322;22.816;2022-08-21T12:46:39;26.90;77.80
22923;DHT22;11627;51.322;22.816;2022-08-21T12:52:14;26.70;1.00
22923;DHT22;11627;51.322;22.816;2022-08-21T12:54:44;26.70;99.90
22923;DHT22;11627;51.322;22.816;2022-08-21T12:57:23;26.70;99.90
22923;DHT22;11627;51.322;22.816;2022-08-21T12:59:56;26.70;99.90
22923;DHT22;11627;51.322;22.816;2022-08-21T13:02:30;26.80;99.90
22923;DHT22;11627;51.322;22.816;2022-08-21T13:05:04;26.70;99.90
22923;DHT22;11627;51.322;22.816;2022-08-21T13:07:34;26.80;99.90
22923;DHT22;11627;51.322;22.816;2022-08-21T13:10:28;26.80;99.90
22923;DHT22;11627;51.322;22.816;2022-08-21T13:12:59;27.30;79.90
22923;DHT22;11627;51.322;22.816;2022-08-21T13:15:33;26.60;1.00
22923;DHT22;11627;51.322;22.816;2022-08-21T13:18:02;26.60;3.10
22923;DHT22;11627;51.322;22.816;2022-08-21T13:20:40;26.70;99.90
22923;DHT22;11627;51.322;22.816;2022-08-21T13:23:27;26.80;75.00
22923;DHT22;11627;51.322;22.816;2022-08-21T13:25:54;27.00;1.00
22923;DHT22;11627;51.322;22.816;2022-08-21T13:28:21;27.00;1.00
22923;DHT22;11627;51.322;22.816;2022-08-21T13:30:53;27.20;1.00
22923;DHT22;11627;51.322;22.816;2022-08-21T13:33:24;27.30;1.00
22923;DHT22;11627;51.322;22.816;2022-08-21T13:38:29;27.20;99.90
22923;DHT22;11627;51.322;22.816;2022-08-21T13:41:02;27.90;99.90
22923;DHT22;11627;51.322;22.816;2022-08-21T13:43:33;28.40;60.10
22923;DHT22;11627;51.322;22.816;2022-08-21T13:46:01;27.40;39.60
22923;DHT22;11627;51.322;22.816;2022-08-21T13:48:30;27.40;63.80
22923;DHT22;11627;51.322;22.816;2022-08-21T13:50:59;27.50;26.10
22923;DHT22;11627;51.322;22.816;2022-08-21T13:56:06;27.80;1.00
22923;DHT22;11627;51.322;22.816;2022-08-21T13:58:53;27.70;99.90
22923;DHT22;11627;51.322;22.816;2022-08-21T14:01:32;27.50;40.10
22923;DHT22;11627;51.322;22.816;2022-08-21T14:04:18;27.50;17.50
22923;DHT22;11627;51.322;22.816;2022-08-21T14:06:46;27.60;1.00
22923;DHT22;11627;51.322;22.816;2022-08-21T14:09:39;27.50;1.00
22923;DHT22;11627;51.322;22.816;2022-08-21T14:12:29;27.60;1.00
22923;DHT22;11627;51.322;22.816;2022-08-21T14:15:03;27.50;99.90
22923;DHT22;11627;51.322;22.816;2022-08-21T14:17:38;27.50;99.90
22923;DHT22;11627;51.322;22.816;2022-08-21T14:20:13;27.30;99.90
22923;DHT22;11627;51.322;22.816;2022-08-21T14:22:58;27.30;99.90
22923;DHT22;11627;51.322;22.816;2022-08-21T14:30:42;27.10;1.00
22923;DHT22;11627;51.322;22.816;2022-08-21T14:33:12;27.20;1.00
22923;DHT22;11627;51.322;22.816;2022-08-21T14:35:40;28.30;99.90
22923;DHT22;11627;51.322;22.816;2022-08-21T14:38:18;27.20;99.90
22923;DHT22;11627;51.322;22.816;2022-08-21T14:40:48;27.20;99.90
22923;DHT22;11627;51.322;22.816;2022-08-21T14:43:16;27.00;99.90
22923;DHT22;11627;51.322;22.816;2022-08-21T14:45:43;26.90;99.90
22923;DHT22;11627;51.322;22.816;2022-08-21T14:48:09;26.80;99.90
22923;DHT22;11627;51.322;22.816;2022-08-21T14:50:35;26.80;99.90
22923;DHT22;11627;51.322;22.816;2022-08-21T14:53:01;26.80;99.90
22923;DHT22;11627;51.322;22.816;2022-08-21T14:55:29;26.80;1.00
22923;DHT22;11627;51.322;22.816;2022-08-21T14:57:56;26.80;1.00
22923;DHT22;11627;51.322;22.816;2022-08-21T15:00:24;27.20;30.00
22923;DHT22;11627;51.322;22.816;2022-08-21T15:02:51;28.20;1.00
22923;DHT22;11627;51.322;22.816;2022-08-21T15:05:17;28.70;99.90
22923;DHT22;11627;51.322;22.816;2022-08-21T15:07:43;29.00;99.90
22923;DHT22;11627;51.322;22.816;2022-08-21T15:10:10;30.40;1.00
22923;DHT22;11627;51.322;22.816;2022-08-21T15:12:37;31.90;99.90
22923;DHT22;11627;51.322;22.816;2022-08-21T15:15:05;32.60;99.90
22923;DHT22;11627;51.322;22.816;2022-08-21T15:17:32;32.10;99.90
22923;DHT22;11627;51.322;22.816;2022-08-21T15:19:57;31.40;94.30
22923;DHT22;11627;51.322;22.816;2022-08-21T15:22:23;30.30;99.90
22923;DHT22;11627;51.322;22.816;2022-08-21T15:24:48;29.30;99.90
22923;DHT22;11627;51.322;22.816;2022-08-21T15:27:16;28.50;99.90
22923;DHT22;11627;51.322;22.816;2022-08-21T15:29:43;28.00;99.90
22923;DHT22;11627;51.322;22.816;2022-08-21T15:32:24;27.60;99.90
22923;DHT22;11627;51.322;22.816;2022-08-21T15:34:53;27.10;99.90
22923;DHT22;11627;51.322;22.816;2022-08-21T15:37:21;26.80;1.00
22923;DHT22;11627;51.322;22.816;2022-08-21T15:39:51;28.10;1.00
22923;DHT22;11627;51.322;22.816;2022-08-21T15:42:18;26.40;96.70
22923;DHT22;11627;51.322;22.816;2022-08-21T15:44:44;26.30;99.90
22923;DHT22;11627;51.322;22.816;2022-08-21T15:47:15;26.20;99.90
22923;DHT22;11627;51.322;22.816;2022-08-21T15:49:46;26.20;99.90
22923;DHT22;11627;51.322;22.816;2022-08-21T15:52:16;26.10;99.90
22923;DHT22;11627;51.322;22.816;2022-08-21T15:54:43;26.10;99.90
22923;DHT22;11627;51.322;22.816;2022-08-21T15:57:15;26.10;1.00
22923;DHT22;11627;51.322;22.816;2022-08-21T15:59:49;26.00;1.00
22923;DHT22;11627;51.322;22.816;2022-08-21T16:02:26;26.00;3.80
22923;DHT22;11627;51.322;22.816;2022-08-21T16:04:54;25.90;92.70
22923;DHT22;11627;51.322;22.816;2022-08-21T16:07:20;25.90;99.90
22923;DHT22;11627;51.322;22.816;2022-08-21T16:09:46;25.80;99.90
22923;DHT22;11627;51.322;22.816;2022-08-21T16:12:19;25.80;99.90
22923;DHT22;11627;51.322;22.816;2022-08-21T16:14:48;25.80;99.90
22923;DHT22;11627;51.322;22.816;2022-08-21T16:17:15;25.80;99.90
22923;DHT22;11627;51.322;22.816;2022-08-21T16:19:41;25.90;99.90
22923;DHT22;11627;51.322;22.816;2022-08-21T16:22:07;25.90;99.90
22923;DHT22;11627;51.322;22.816;2022-08-21T16:24:33;25.90;99.90
22923;DHT22;11627;51.322;22.816;2022-08-21T16:27:01;26.00;99.90
22923;DHT22;11627;51.322;22.816;2022-08-21T16:29:32;26.20;99.90
22923;DHT22;11627;51.322;22.816;2022-08-21T16:31:58;26.40;99.90
22923;DHT22;11627;51.322;22.816;2022-08-21T16:34:24;26.50;99.90
22923;DHT22;11627;51.322;22.816;2022-08-21T16:36:50;26.60;99.90
22923;DHT22;11627;51.322;22.816;2022-08-21T16:39:16;26.60;99.90
22923;DHT22;11627;51.322;22.816;2022-08-21T16:41:41;26.60;99.90
22923;DHT22;11627;51.322;22.816;2022-08-21T16:44:07;26.80;99.90
22923;DHT22;11627;51.322;22.816;2022-08-21T16:46:36;27.00;99.90
22923;DHT22;11627;51.322;22.816;2022-08-21T16:49:03;27.10;99.90
22923;DHT22;11627;51.322;22.816;2022-08-21T16:51:29;27.00;99.90
22923;DHT22;11627;51.322;22.816;2022-08-21T16:53:56;26.80;99.90
22923;DHT22;11627;51.322;22.816;2022-08-21T16:56:23;26.60;99.90
22923;DHT22;11627;51.322;22.816;2022-08-21T16:58:50;26.40;99.90
22923;DHT22;11627;51.322;22.816;2022-08-21T17:01:19;26.20;99.90
22923;DHT22;11627;51.322;22.816;2022-08-21T17:03:48;25.90;99.90
22923;DHT22;11627;51.322;22.816;2022-08-21T17:06:16;25.70;99.90
22923;DHT22;11627;51.322;22.816;2022-08-21T17:08:43;25.60;99.90
22923;DHT22;11627;51.322;22.816;2022-08-21T17:11:31;25.50;99.90
22923;DHT22;11627;51.322;22.816;2022-08-21T17:14:02;25.30;1.00
22923;DHT22;11627;51.322;22.816;2022-08-21T17:16:31;25.20;99.90
22923;DHT22;11627;51.322;22.816;2022-08-21T17:18:57;25.10;99.90
22923;DHT22;11627;51.322;22.816;2022-08-21T17:21:22;25.00;36.00
22923;DHT22;11627;51.322;22.816;2022-08-21T17:23:48;24.90;99.90
22923;DHT22;11627;51.322;22.816;2022-08-21T17:26:15;24.80;1.00
22923;DHT22;11627;51.322;22.816;2022-08-21T17:28:42;24.70;1.00
22923;DHT22;11627;51.322;22.816;2022-08-21T17:31:11;24.60;74.10
22923;DHT22;11627;51.322;22.816;2022-08-21T17:33:43;24.50;99.90